Time;durP1;ratioP1;P1;durP2;ratioP2;P2;SDS_P1;SDS_P2;PMS_P1;PMS_P2;Temp;Humidity;BMP_temperature;BMP_pressure;BME280_temperature;BME280_humidity;BME280_pressure;Samples;Min_cycle;Max_cycle;Signal;HPM_P1;HPM_P2
2022/01/11 00:02:02;;;;;;;;;;;22.60;26.20;;;;;;5121136;28;20398;-51
2022/01/11 00:04:30;;;;;;;;;;;22.70;26.10;;;;;;5108335;28;19931;-51
2022/01/11 00:06:56;;;;;;;;;;;22.80;26.10;;;;;;5119085;28;19935;-51
2022/01/11 00:09:38;;;;;;;;;;;22.60;26.20;;;;;;5120689;27;19923;-50
2022/01/11 00:12:06;;;;;;;;;;;22.70;26.20;;;;;;5126784;28;19927;-52
2022/01/11 00:14:32;;;;;;;;;;;22.70;26.10;;;;;;5120599;28;19976;-49
2022/01/11 00:16:59;;;;;;;;;;;22.70;26.20;;;;;;5102383;28;20438;-49
2022/01/11 00:19:25;;;;;;;;;;;22.80;26.10;;;;;;5107434;28;19924;-51
2022/01/11 00:21:51;;;;;;;;;;;22.80;26.10;;;;;;5121097;28;20421;-51
2022/01/11 00:24:29;;;;;;;;;;;22.80;26.10;;;;;;5122021;28;20727;-53
2022/01/11 00:26:58;;;;;;;;;;;22.80;26.20;;;;;;5103650;28;19927;-49
2022/01/11 00:29:23;;;;;;;;;;;22.70;26.20;;;;;;5120807;28;19923;-51
2022/01/11 00:31:50;;;;;;;;;;;22.80;26.10;;;;;;5126242;28;19929;-50
2022/01/11 00:34:18;;;;;;;;;;;22.80;26.20;;;;;;5120329;28;19935;-49
2022/01/11 00:36:44;;;;;;;;;;;22.80;26.10;;;;;;5120558;28;19933;-51
2022/01/11 00:39:10;;;;;;;;;;;22.80;26.00;;;;;;5126099;28;19923;-49
2022/01/11 00:41:36;;;;;;;;;;;22.80;26.00;;;;;;5120784;28;19950;-48
2022/01/11 00:44:02;;;;;;;;;;;22.70;26.10;;;;;;5118226;28;19932;-47
2022/01/11 00:46:28;;;;;;;;;;;22.80;26.20;;;;;;5125780;28;19923;-50
2022/01/11 00:48:54;;;;;;;;;;;22.80;26.10;;;;;;5120373;28;19931;-50
2022/01/11 00:51:19;;;;;;;;;;;22.80;26.00;;;;;;5107506;28;19978;-47
2022/01/11 00:53:45;;;;;;;;;;;22.80;26.00;;;;;;5120122;28;19931;-50
2022/01/11 00:56:11;;;;;;;;;;;22.80;26.00;;;;;;5120329;28;20294;-49
2022/01/11 00:58:37;;;;;;;;;;;22.80;26.10;;;;;;5126262;28;19930;-49
2022/01/11 01:01:02;;;;;;;;;;;22.80;26.00;;;;;;5119908;28;19969;-50
2022/01/11 01:03:28;;;;;;;;;;;22.80;26.00;;;;;;5118470;28;19923;-48
2022/01/11 01:05:54;;;;;;;;;;;22.80;26.00;;;;;;5125883;28;19943;-47
2022/01/11 01:08:20;;;;;;;;;;;22.80;26.00;;;;;;5120045;28;19934;-52
2022/01/11 01:10:46;;;;;;;;;;;22.80;26.00;;;;;;5125505;28;19924;-48
2022/01/11 01:13:14;;;;;;;;;;;22.80;26.00;;;;;;5120085;28;20002;-50
2022/01/11 01:15:40;;;;;;;;;;;22.80;26.10;;;;;;5120123;28;20014;-48
2022/01/11 01:18:05;;;;;;;;;;;22.80;26.00;;;;;;5125588;28;19931;-51
2022/01/11 01:20:31;;;;;;;;;;;22.80;26.00;;;;;;5118071;27;19923;-50
2022/01/11 01:22:57;;;;;;;;;;;22.80;26.00;;;;;;5123723;28;20346;-48
2022/01/11 01:25:23;;;;;;;;;;;22.90;25.90;;;;;;5129145;28;19987;-47
2022/01/11 01:27:49;;;;;;;;;;;22.80;25.90;;;;;;5123349;28;19931;-50
2022/01/11 01:30:17;;;;;;;;;;;22.90;25.90;;;;;;5127565;28;19924;-56
2022/01/11 01:32:43;;;;;;;;;;;22.90;25.90;;;;;;5125779;28;19923;-49
2022/01/11 01:35:09;;;;;;;;;;;22.90;25.80;;;;;;5123504;28;19971;-48
2022/01/11 01:37:35;;;;;;;;;;;22.90;25.90;;;;;;5128897;28;19945;-49
2022/01/11 01:40:01;;;;;;;;;;;22.90;25.90;;;;;;5121341;28;19927;-47
2022/01/11 01:42:29;;;;;;;;;;;22.90;25.90;;;;;;5123371;28;20010;-48
2022/01/11 01:44:55;;;;;;;;;;;22.90;25.80;;;;;;5128751;28;19929;-46
2022/01/11 01:47:21;;;;;;;;;;;22.90;25.80;;;;;;5123157;28;19927;-51
2022/01/11 01:49:47;;;;;;;;;;;22.90;25.90;;;;;;5123636;28;20408;-51
2022/01/11 01:52:14;;;;;;;;;;;22.80;25.90;;;;;;5128911;28;19924;-50
2022/01/11 01:54:40;;;;;;;;;;;22.80;25.90;;;;;;5123240;28;19928;-49
2022/01/11 01:57:06;;;;;;;;;;;22.90;25.90;;;;;;5108599;28;20026;-51
2022/01/11 01:59:32;;;;;;;;;;;22.90;25.90;;;;;;5104401;28;19992;-49
2022/01/11 02:01:58;;;;;;;;;;;22.90;25.90;;;;;;5103104;28;19951;-49
2022/01/11 02:04:24;;;;;;;;;;;22.90;25.80;;;;;;5128495;28;19924;-49
2022/01/11 02:06:50;;;;;;;;;;;22.90;25.90;;;;;;5103644;28;19975;-47
2022/01/11 02:09:16;;;;;;;;;;;22.90;25.80;;;;;;5122914;28;19934;-48
2022/01/11 02:11:41;;;;;;;;;;;22.80;25.90;;;;;;5128368;28;19934;-46
2022/01/11 02:14:07;;;;;;;;;;;22.90;25.80;;;;;;5123068;28;19932;-47
2022/01/11 02:16:33;;;;;;;;;;;22.90;25.90;;;;;;5126268;28;19980;-49
2022/01/11 02:18:59;;;;;;;;;;;23.00;25.80;;;;;;5122946;28;19931;-47
2022/01/11 02:21:25;;;;;;;;;;;22.80;25.90;;;;;;5122683;28;19930;-46
2022/01/11 02:23:51;;;;;;;;;;;22.90;25.90;;;;;;5128185;28;19931;-49
2022/01/11 02:26:16;;;;;;;;;;;22.90;25.80;;;;;;5122635;28;19923;-49
2022/01/11 02:28:42;;;;;;;;;;;22.90;25.80;;;;;;5122774;28;19923;-48
2022/01/11 02:31:12;;;;;;;;;;;22.90;25.70;;;;;;5128238;28;20371;-47
2022/01/11 02:33:38;;;;;;;;;;;23.00;25.70;;;;;;5121626;27;19923;-48
2022/01/11 02:36:05;;;;;;;;;;;23.00;25.80;;;;;;5125552;28;19952;-54
2022/01/11 02:38:31;;;;;;;;;;;22.90;25.80;;;;;;5124549;28;19924;-45
2022/01/11 02:40:57;;;;;;;;;;;23.00;25.70;;;;;;5122149;28;19931;-46
2022/01/11 02:43:23;;;;;;;;;;;22.90;25.80;;;;;;5127636;28;19931;-48
2022/01/11 02:45:49;;;;;;;;;;;22.90;25.80;;;;;;5122428;28;19943;-47
2022/01/11 02:48:14;;;;;;;;;;;23.10;25.70;;;;;;5104073;28;19976;-49
2022/01/11 02:50:40;;;;;;;;;;;23.00;25.70;;;;;;5128124;28;19924;-47
2022/01/11 02:53:06;;;;;;;;;;;22.90;25.80;;;;;;5120409;28;19985;-47
2022/01/11 02:55:37;;;;;;;;;;;23.00;25.60;;;;;;5105078;28;20342;-56
2022/01/11 02:58:03;;;;;;;;;;;23.00;25.70;;;;;;5127750;28;19927;-45
2022/01/11 03:00:29;;;;;;;;;;;23.20;25.50;;;;;;5122163;28;20280;-47
2022/01/11 03:02:54;;;;;;;;;;;22.90;25.70;;;;;;5127291;28;19923;-49
2022/01/11 03:05:20;;;;;;;;;;;23.10;25.50;;;;;;5122438;28;20383;-46
2022/01/11 03:07:46;;;;;;;;;;;23.00;25.50;;;;;;5122277;28;19923;-47
2022/01/11 03:10:28;;;;;;;;;;;23.10;25.40;;;;;;5127573;28;20325;-49
2022/01/11 03:12:54;;;;;;;;;;;23.00;25.40;;;;;;5120598;28;20319;-47
2022/01/11 03:15:20;;;;;;;;;;;23.10;25.40;;;;;;5121935;28;19967;-48
2022/01/11 03:17:46;;;;;;;;;;;23.10;25.40;;;;;;5127236;28;20006;-46
2022/01/11 03:20:12;;;;;;;;;;;23.00;25.40;;;;;;5121779;28;20378;-45
2022/01/11 03:22:38;;;;;;;;;;;23.10;25.30;;;;;;5123321;28;19973;-57
2022/01/11 03:25:05;;;;;;;;;;;23.10;25.30;;;;;;5126217;28;20323;-52
2022/01/11 03:27:31;;;;;;;;;;;22.90;25.60;;;;;;5122020;28;19924;-50
2022/01/11 03:29:56;;;;;;;;;;;22.80;25.80;;;;;;5125058;28;20030;-52
2022/01/11 03:32:22;;;;;;;;;;;22.80;25.70;;;;;;5121596;28;19934;-48
2022/01/11 03:34:48;;;;;;;;;;;22.70;25.80;;;;;;5121605;28;20375;-52
2022/01/11 03:37:16;;;;;;;;;;;22.80;25.70;;;;;;5126903;28;19927;-53
2022/01/11 03:39:42;;;;;;;;;;;22.70;25.80;;;;;;5121494;28;20002;-48
2022/01/11 03:42:08;;;;;;;;;;;22.70;25.80;;;;;;5121877;28;19952;-51
2022/01/11 03:44:34;;;;;;;;;;;22.60;25.90;;;;;;5126239;27;20022;-53
2022/01/11 03:47:00;;;;;;;;;;;22.70;25.90;;;;;;5121245;28;20371;-51
2022/01/11 03:49:25;;;;;;;;;;;22.70;25.90;;;;;;5124789;28;20336;-48
2022/01/11 03:51:51;;;;;;;;;;;22.70;25.80;;;;;;5121347;28;19930;-50
2022/01/11 03:54:24;;;;;;;;;;;22.70;25.90;;;;;;5121270;28;19979;-50
2022/01/11 03:56:49;;;;;;;;;;;22.70;25.90;;;;;;5126657;28;19931;-52
2022/01/11 03:59:15;;;;;;;;;;;22.70;25.90;;;;;;5121004;28;20027;-49
2022/01/11 04:01:44;;;;;;;;;;;22.70;25.80;;;;;;5121413;28;20342;-49
2022/01/11 04:04:10;;;;;;;;;;;22.70;25.80;;;;;;5126875;28;19927;-50
2022/01/11 04:06:36;;;;;;;;;;;22.70;25.90;;;;;;5100853;28;20529;-53
2022/01/11 04:09:03;;;;;;;;;;;22.80;25.80;;;;;;5123444;28;19927;-55
2022/01/11 04:11:28;;;;;;;;;;;22.70;25.90;;;;;;5124433;28;19924;-49
2022/01/11 04:13:54;;;;;;;;;;;22.80;25.90;;;;;;5121017;28;19930;-51
2022/01/11 04:16:20;;;;;;;;;;;22.70;25.90;;;;;;5126241;28;19930;-49
2022/01/11 04:18:46;;;;;;;;;;;22.70;25.90;;;;;;5121165;28;20370;-49
2022/01/11 04:21:12;;;;;;;;;;;22.70;25.90;;;;;;5120984;28;19929;-48
2022/01/11 04:23:38;;;;;;;;;;;22.70;25.90;;;;;;5126432;28;20014;-48
2022/01/11 04:26:04;;;;;;;;;;;22.70;25.90;;;;;;5118867;28;19924;-49
2022/01/11 04:28:30;;;;;;;;;;;22.70;25.90;;;;;;5120900;28;19950;-51
2022/01/11 04:31:00;;;;;;;;;;;22.80;25.80;;;;;;5126365;28;19970;-50
2022/01/11 04:33:26;;;;;;;;;;;22.80;25.80;;;;;;5120811;28;20371;-50
2022/01/11 04:35:52;;;;;;;;;;;22.80;25.80;;;;;;5125946;28;20395;-50
2022/01/11 04:38:18;;;;;;;;;;;22.70;25.90;;;;;;5120874;28;19972;-47
2022/01/11 04:40:44;;;;;;;;;;;22.80;25.80;;;;;;5102471;28;19927;-51
2022/01/11 04:43:10;;;;;;;;;;;22.80;25.90;;;;;;5125058;28;19927;-50
2022/01/11 04:45:35;;;;;;;;;;;22.80;25.80;;;;;;5119402;28;20386;-48
2022/01/11 04:48:01;;;;;;;;;;;22.80;25.80;;;;;;5120550;28;20290;-49
2022/01/11 04:50:27;;;;;;;;;;;22.80;25.90;;;;;;5125942;28;19924;-48
2022/01/11 04:52:53;;;;;;;;;;;22.80;25.90;;;;;;5120236;28;20477;-49
2022/01/11 04:55:19;;;;;;;;;;;22.80;25.90;;;;;;5125842;27;19927;-48
2022/01/11 04:57:45;;;;;;;;;;;22.80;25.90;;;;;;5120641;28;19927;-47
2022/01/11 05:00:11;;;;;;;;;;;22.70;26.00;;;;;;5120463;28;20340;-51
2022/01/11 05:02:37;;;;;;;;;;;22.80;25.80;;;;;;5123695;28;19927;-50
2022/01/11 05:05:03;;;;;;;;;;;22.80;25.80;;;;;;5120477;28;20714;-48
2022/01/11 05:07:29;;;;;;;;;;;22.80;25.80;;;;;;5120447;28;20025;-48
2022/01/11 05:09:55;;;;;;;;;;;22.80;25.80;;;;;;5125509;28;20363;-52
2022/01/11 05:12:20;;;;;;;;;;;22.80;25.80;;;;;;5119939;28;20297;-51
2022/01/11 05:14:46;;;;;;;;;;;22.70;25.80;;;;;;5124490;28;19988;-55
2022/01/11 05:17:12;;;;;;;;;;;22.80;25.70;;;;;;5121563;28;19923;-48
2022/01/11 05:19:38;;;;;;;;;;;22.80;25.60;;;;;;5119937;28;19924;-48
2022/01/11 05:22:03;;;;;;;;;;;22.80;25.60;;;;;;5123772;28;19971;-48
2022/01/11 05:24:29;;;;;;;;;;;22.80;25.70;;;;;;5120285;28;20043;-50
2022/01/11 05:26:55;;;;;;;;;;;22.80;25.60;;;;;;5120284;28;19923;-49
2022/01/11 05:29:21;;;;;;;;;;;22.80;25.60;;;;;;5125225;28;20370;-48
2022/01/11 05:31:47;;;;;;;;;;;22.80;25.60;;;;;;5119733;28;19928;-48
2022/01/11 05:34:12;;;;;;;;;;;22.80;25.70;;;;;;5122308;28;19988;-56
2022/01/11 05:36:38;;;;;;;;;;;22.80;25.50;;;;;;5123732;28;20057;-48
2022/01/11 05:39:04;;;;;;;;;;;22.80;25.50;;;;;;5118522;28;20404;-50
2022/01/11 05:41:30;;;;;;;;;;;22.80;25.50;;;;;;5124892;28;19944;-51
2022/01/11 05:43:56;;;;;;;;;;;22.80;25.50;;;;;;5119891;28;19923;-47
2022/01/11 05:46:22;;;;;;;;;;;22.80;25.50;;;;;;5119953;28;20378;-49
2022/01/11 05:48:48;;;;;;;;;;;22.90;25.40;;;;;;5125050;28;20342;-52
2022/01/11 05:51:15;;;;;;;;;;;22.90;25.30;;;;;;5119761;28;19935;-46
2022/01/11 05:53:41;;;;;;;;;;;22.90;25.40;;;;;;5119918;28;20439;-50
2022/01/11 05:56:07;;;;;;;;;;;22.80;25.40;;;;;;5125265;28;19937;-47
2022/01/11 05:58:32;;;;;;;;;;;22.90;25.30;;;;;;5117540;28;19932;-47
2022/01/11 06:00:58;;;;;;;;;;;22.90;25.40;;;;;;5125298;28;20031;-48
2022/01/11 06:03:24;;;;;;;;;;;22.90;25.40;;;;;;5119621;28;19935;-48
2022/01/11 06:05:50;;;;;;;;;;;23.00;25.40;;;;;;5119423;28;19949;-47
2022/01/11 06:08:16;;;;;;;;;;;23.00;25.30;;;;;;5127193;27;19931;-48
2022/01/11 06:10:43;;;;;;;;;;;22.90;25.40;;;;;;5123023;28;20260;-49
2022/01/11 06:13:09;;;;;;;;;;;23.00;25.50;;;;;;5123167;28;19938;-49
2022/01/11 06:15:35;;;;;;;;;;;23.00;25.50;;;;;;5127690;28;20466;-47
2022/01/11 06:18:01;;;;;;;;;;;22.90;25.60;;;;;;5121407;28;19980;-48
2022/01/11 06:20:27;;;;;;;;;;;23.00;25.50;;;;;;5128105;28;19974;-45
2022/01/11 06:22:53;;;;;;;;;;;23.00;25.50;;;;;;5122466;28;20193;-46
2022/01/11 06:25:19;;;;;;;;;;;23.00;25.50;;;;;;5122520;28;20267;-48
2022/01/11 06:27:45;;;;;;;;;;;22.90;25.60;;;;;;5128191;28;19930;-47
2022/01/11 06:30:10;;;;;;;;;;;23.00;25.50;;;;;;5104503;28;19930;-47
2022/01/11 06:32:37;;;;;;;;;;;23.00;25.50;;;;;;5122663;28;20084;-51
2022/01/11 06:35:03;;;;;;;;;;;22.90;25.50;;;;;;5125542;28;19931;-48
2022/01/11 06:37:29;;;;;;;;;;;23.00;25.50;;;;;;5122614;28;19930;-47
2022/01/11 06:39:55;;;;;;;;;;;23.00;25.50;;;;;;5127474;28;19927;-52
2022/01/11 06:42:20;;;;;;;;;;;23.00;25.50;;;;;;5123182;28;19924;-48
2022/01/11 06:44:46;;;;;;;;;;;23.00;25.50;;;;;;5122299;28;19968;-47
2022/01/11 06:47:12;;;;;;;;;;;23.00;25.50;;;;;;5128212;28;19930;-45
2022/01/11 06:49:38;;;;;;;;;;;23.00;25.50;;;;;;5122274;28;19949;-46
2022/01/11 06:52:04;;;;;;;;;;;23.00;25.50;;;;;;5122305;28;19932;-48
2022/01/11 06:54:30;;;;;;;;;;;22.90;25.70;;;;;;5125868;28;19972;-47
2022/01/11 06:56:55;;;;;;;;;;;23.10;25.40;;;;;;5122348;28;20165;-46
2022/01/11 06:59:22;;;;;;;;;;;23.10;25.50;;;;;;5124670;28;20310;-56
2022/01/11 07:01:48;;;;;;;;;;;23.20;25.40;;;;;;5125686;28;19935;-50
2022/01/11 07:04:14;;;;;;;;;;;23.30;25.40;;;;;;5103769;28;20348;-50
2022/01/11 07:06:40;;;;;;;;;;;23.00;25.60;;;;;;5127712;28;19971;-49
2022/01/11 07:09:06;;;;;;;;;;;23.00;25.60;;;;;;5122132;28;19935;-51
2022/01/11 07:11:31;;;;;;;;;;;22.90;25.70;;;;;;5120728;28;19923;-51
2022/01/11 07:13:57;;;;;;;;;;;22.80;25.80;;;;;;5126902;28;19923;-48
2022/01/11 07:16:23;;;;;;;;;;;22.90;25.70;;;;;;5121894;28;20258;-49
2022/01/11 07:18:49;;;;;;;;;;;22.90;25.60;;;;;;5120686;27;19934;-54
2022/01/11 07:21:15;;;;;;;;;;;22.90;25.60;;;;;;5127046;28;19976;-46
2022/01/11 07:23:41;;;;;;;;;;;23.00;25.60;;;;;;5121986;28;19932;-47
2022/01/11 07:26:07;;;;;;;;;;;23.00;25.60;;;;;;5127612;28;21286;-47
2022/01/11 07:28:34;;;;;;;;;;;23.00;25.60;;;;;;5121917;28;19935;-47
2022/01/11 07:31:00;;;;;;;;;;;23.10;25.50;;;;;;5101313;28;19923;-46
2022/01/11 07:33:25;;;;;;;;;;;23.00;25.50;;;;;;5127393;28;19931;-43
2022/01/11 07:35:51;;;;;;;;;;;23.10;25.50;;;;;;5121403;28;19928;-46
2022/01/11 07:38:17;;;;;;;;;;;23.20;25.30;;;;;;5121463;28;20456;-45
2022/01/11 07:40:42;;;;;;;;;;;23.30;25.20;;;;;;5126811;28;19924;-53
2022/01/11 07:43:08;;;;;;;;;;;23.00;25.40;;;;;;5121779;28;19980;-54
2022/01/11 07:45:34;;;;;;;;;;;22.80;25.60;;;;;;5127161;28;20032;-53
2022/01/11 07:48:00;;;;;;;;;;;22.70;25.80;;;;;;5121237;28;20384;-51
2022/01/11 07:50:26;;;;;;;;;;;22.70;25.90;;;;;;5119640;28;20312;-51
2022/01/11 07:52:51;;;;;;;;;;;22.70;25.80;;;;;;5126720;28;20302;-53
2022/01/11 07:55:18;;;;;;;;;;;22.60;25.90;;;;;;5121219;28;19934;-50
2022/01/11 07:57:44;;;;;;;;;;;22.70;25.80;;;;;;5121035;28;20004;-51
2022/01/11 08:00:10;;;;;;;;;;;22.60;25.90;;;;;;5126570;28;19931;-51
2022/01/11 08:02:35;;;;;;;;;;;22.80;25.70;;;;;;5121488;28;20021;-52
2022/01/11 08:05:01;;;;;;;;;;;22.80;25.70;;;;;;5126692;28;19924;-48
2022/01/11 08:07:27;;;;;;;;;;;22.70;25.80;;;;;;5119357;28;19977;-49
2022/01/11 08:09:53;;;;;;;;;;;22.60;25.80;;;;;;5121034;28;19927;-53
2022/01/11 08:12:19;;;;;;;;;;;22.70;25.60;;;;;;5126583;28;19924;-48
2022/01/11 08:14:44;;;;;;;;;;;22.70;25.60;;;;;;5120686;28;19927;-49
2022/01/11 08:17:10;;;;;;;;;;;22.70;25.70;;;;;;5120803;28;19927;-52
2022/01/11 08:19:36;;;;;;;;;;;22.80;25.50;;;;;;5108213;28;19972;-50
2022/01/11 08:22:02;;;;;;;;;;;22.70;25.60;;;;;;5120871;28;19930;-49
2022/01/11 08:24:27;;;;;;;;;;;22.70;25.70;;;;;;5124576;28;20410;-56
2022/01/11 08:26:54;;;;;;;;;;;22.70;25.70;;;;;;5120688;28;20021;-50
2022/01/11 08:29:20;;;;;;;;;;;22.70;25.80;;;;;;5120760;28;20351;-48
2022/01/11 08:31:46;;;;;;;;;;;22.70;25.70;;;;;;5107086;28;19948;-47
2022/01/11 08:34:14;;;;;;;;;;;22.70;25.80;;;;;;5120549;28;19927;-49
2022/01/11 08:36:40;;;;;;;;;;;22.80;25.60;;;;;;5120804;28;19924;-50
2022/01/11 08:39:06;;;;;;;;;;;22.80;25.70;;;;;;5126378;28;20056;-51
2022/01/11 08:41:32;;;;;;;;;;;22.80;25.60;;;;;;5120744;28;20337;-49
2022/01/11 08:43:58;;;;;;;;;;;22.80;25.60;;;;;;5119676;28;19966;-55
2022/01/11 08:46:23;;;;;;;;;;;22.80;25.60;;;;;;5125082;28;20022;-51
2022/01/11 08:48:49;;;;;;;;;;;22.90;25.50;;;;;;5120539;28;19970;-51
2022/01/11 08:51:14;;;;;;;;;;;22.80;25.60;;;;;;5090564;28;19955;-51
2022/01/11 08:53:40;;;;;;;;;;;22.80;25.50;;;;;;5100350;28;19931;-51
2022/01/11 08:56:07;;;;;;;;;;;22.80;25.70;;;;;;5120496;28;19980;-48
2022/01/11 08:58:33;;;;;;;;;;;22.90;25.60;;;;;;5126236;28;19927;-48
2022/01/11 09:00:58;;;;;;;;;;;22.90;25.60;;;;;;5120580;28;19928;-50
2022/01/11 09:03:24;;;;;;;;;;;22.90;25.60;;;;;;5118087;28;20018;-48
2022/01/11 09:05:51;;;;;;;;;;;22.90;25.60;;;;;;5125558;28;20023;-48
2022/01/11 09:08:17;;;;;;;;;;;22.90;25.50;;;;;;5120257;28;20344;-47
2022/01/11 09:10:42;;;;;;;;;;;22.90;25.50;;;;;;5125513;28;19923;-48
2022/01/11 09:13:08;;;;;;;;;;;22.80;25.60;;;;;;5119879;28;20397;-48
2022/01/11 09:15:34;;;;;;;;;;;22.90;25.60;;;;;;5120354;28;20298;-49
2022/01/11 09:18:00;;;;;;;;;;;22.80;25.70;;;;;;5107382;28;20298;-48
2022/01/11 09:20:26;;;;;;;;;;;22.90;25.50;;;;;;5119831;28;19927;-50
2022/01/11 09:22:52;;;;;;;;;;;22.90;25.60;;;;;;5118336;28;19923;-51
2022/01/11 09:25:18;;;;;;;;;;;22.80;25.60;;;;;;5125602;28;20387;-48
2022/01/11 09:27:44;;;;;;;;;;;22.90;25.60;;;;;;5119989;28;20289;-48
2022/01/11 09:30:10;;;;;;;;;;;22.90;25.50;;;;;;5125272;28;19924;-48
2022/01/11 09:32:36;;;;;;;;;;;22.80;25.60;;;;;;5119938;28;20422;-47
2022/01/11 09:35:02;;;;;;;;;;;22.90;25.50;;;;;;5120072;28;19935;-51
2022/01/11 09:37:28;;;;;;;;;;;22.90;25.50;;;;;;5107344;28;19954;-48
2022/01/11 09:39:54;;;;;;;;;;;22.80;25.50;;;;;;5117837;28;19927;-51
2022/01/11 09:42:20;;;;;;;;;;;22.90;25.50;;;;;;5120611;27;20066;-50
2022/01/11 09:44:47;;;;;;;;;;;22.90;25.30;;;;;;5129122;28;19949;-49
2022/01/11 09:47:13;;;;;;;;;;;22.80;25.50;;;;;;5123365;28;19934;-47
2022/01/11 09:49:39;;;;;;;;;;;22.90;25.40;;;;;;5126316;28;20065;-55
2022/01/11 09:52:07;;;;;;;;;;;22.90;25.40;;;;;;5126060;28;19942;-51
2022/01/11 09:54:43;;;;;;;;;;;22.90;25.40;;;;;;5123390;28;20467;-51
2022/01/11 09:57:09;;;;;;;;;;;22.90;25.40;;;;;;5128558;28;20018;-49
2022/01/11 09:59:35;;;;;;;;;;;22.80;25.50;;;;;;5121496;28;19924;-47
2022/01/11 10:02:01;;;;;;;;;;;22.90;25.30;;;;;;5123317;28;19927;-48
2022/01/11 10:04:28;;;;;;;;;;;22.90;25.30;;;;;;5128556;28;19978;-51
2022/01/11 10:06:55;;;;;;;;;;;22.90;25.30;;;;;;5122892;28;19934;-47
2022/01/11 10:09:21;;;;;;;;;;;22.90;25.20;;;;;;5122859;28;20402;-48
2022/01/11 10:11:48;;;;;;;;;;;23.00;25.20;;;;;;5128528;28;19924;-49
2022/01/11 10:14:16;;;;;;;;;;;23.00;25.20;;;;;;5122914;28;19930;-47
2022/01/11 10:16:42;;;;;;;;;;;23.10;25.20;;;;;;5125165;28;19937;-58
2022/01/11 10:19:18;;;;;;;;;;;23.00;25.20;;;;;;5124149;28;19939;-50
2022/01/11 10:21:44;;;;;;;;;;;23.00;25.20;;;;;;5122759;28;19923;-46
2022/01/11 10:24:24;;;;;;;;;;;23.00;25.20;;;;;;5128130;28;20344;-47
2022/01/11 10:26:50;;;;;;;;;;;23.10;25.10;;;;;;5123132;28;20014;-47
2022/01/11 10:29:25;;;;;;;;;;;23.20;25.00;;;;;;5123086;28;19930;-47
2022/01/11 10:31:52;;;;;;;;;;;23.10;25.10;;;;;;5127991;28;20072;-48
2022/01/11 10:34:28;;;;;;;;;;;23.20;25.00;;;;;;5122153;28;19983;-46
2022/01/11 10:36:54;;;;;;;;;;;23.10;25.10;;;;;;5121571;28;20617;-47
2022/01/11 10:39:23;;;;;;;;;;;23.20;25.00;;;;;;5128001;28;20022;-48
2022/01/11 10:41:49;;;;;;;;;;;23.20;25.00;;;;;;5102547;28;19928;-46
2022/01/11 10:44:20;;;;;;;;;;;23.10;25.10;;;;;;5122229;28;19927;-45
2022/01/11 10:46:46;;;;;;;;;;;23.10;25.00;;;;;;5124700;28;19923;-50
2022/01/11 10:49:12;;;;;;;;;;;23.20;24.90;;;;;;5122817;28;19952;-50
2022/01/11 10:51:38;;;;;;;;;;;23.20;24.90;;;;;;5104769;28;20381;-59
2022/01/11 10:54:08;;;;;;;;;;;23.20;24.90;;;;;;5123740;27;19949;-49
2022/01/11 10:56:38;;;;;;;;;;;23.00;25.00;;;;;;5122560;28;19971;-50
2022/01/11 10:59:08;;;;;;;;;;;23.00;25.10;;;;;;5127779;28;19937;-51
2022/01/11 11:01:35;;;;;;;;;;;22.90;25.10;;;;;;5122033;28;19956;-50
2022/01/11 11:04:01;;;;;;;;;;;23.00;25.10;;;;;;5121880;28;19929;-50
2022/01/11 11:06:26;;;;;;;;;;;22.90;25.10;;;;;;5127896;28;19923;-49
2022/01/11 11:08:52;;;;;;;;;;;23.00;25.00;;;;;;5122361;28;19923;-47
2022/01/11 11:11:20;;;;;;;;;;;23.00;24.90;;;;;;5121428;28;20183;-49
2022/01/11 11:13:47;;;;;;;;;;;23.00;24.90;;;;;;5125929;28;19924;-49
2022/01/11 11:16:16;;;;;;;;;;;23.00;24.70;;;;;;5121950;28;19941;-46
2022/01/11 11:18:42;;;;;;;;;;;23.00;24.70;;;;;;5124760;28;19927;-53
2022/01/11 11:21:12;;;;;;;;;;;23.10;24.50;;;;;;5125065;28;20393;-50
2022/01/11 11:23:38;;;;;;;;;;;23.10;24.50;;;;;;5121842;28;19935;-47
2022/01/11 11:26:04;;;;;;;;;;;23.20;24.40;;;;;;5127454;28;19924;-48
2022/01/11 11:28:29;;;;;;;;;;;23.20;24.30;;;;;;5122098;28;19938;-51
2022/01/11 11:30:55;;;;;;;;;;;23.20;24.30;;;;;;5119795;28;19924;-48
2022/01/11 11:33:21;;;;;;;;;;;23.20;24.40;;;;;;5108859;28;19927;-49
2022/01/11 11:35:48;;;;;;;;;;;23.30;24.30;;;;;;5121478;28;20378;-52
2022/01/11 11:38:13;;;;;;;;;;;23.30;24.40;;;;;;5121491;28;20347;-52
2022/01/11 11:40:39;;;;;;;;;;;23.10;24.50;;;;;;5107013;28;19927;-53
2022/01/11 11:43:06;;;;;;;;;;;23.20;24.60;;;;;;5103314;28;19923;-51
2022/01/11 11:45:32;;;;;;;;;;;23.10;24.50;;;;;;5127062;28;20363;-52
2022/01/11 11:48:17;;;;;;;;;;;23.00;24.60;;;;;;5121182;28;20026;-50
2022/01/11 11:50:51;;;;;;;;;;;22.90;24.70;;;;;;5120123;28;19928;-51
2022/01/11 11:53:24;;;;;;;;;;;22.80;24.70;;;;;;5126867;28;19932;-51
2022/01/11 11:55:49;;;;;;;;;;;22.90;24.70;;;;;;5120932;28;19927;-50
2022/01/11 11:58:19;;;;;;;;;;;23.00;24.60;;;;;;5121075;28;20421;-52
2022/01/11 12:00:46;;;;;;;;;;;23.00;24.60;;;;;;5126926;28;19924;-52
2022/01/11 12:03:22;;;;;;;;;;;22.90;24.50;;;;;;5121431;28;20200;-51
2022/01/11 12:05:48;;;;;;;;;;;22.90;24.60;;;;;;5120873;27;19930;-49
2022/01/11 12:08:23;;;;;;;;;;;23.00;24.50;;;;;;5124409;28;19967;-49
2022/01/11 12:10:53;;;;;;;;;;;23.00;24.40;;;;;;5121154;28;19923;-49
2022/01/11 12:13:38;;;;;;;;;;;22.90;24.30;;;;;;5121055;28;19975;-50
2022/01/11 12:16:04;;;;;;;;;;;23.00;24.00;;;;;;5126465;28;19927;-54
2022/01/11 12:18:42;;;;;;;;;;;23.00;23.90;;;;;;5121122;28;19931;-51
2022/01/11 12:21:08;;;;;;;;;;;23.10;23.70;;;;;;5121126;28;19923;-49
2022/01/11 12:23:34;;;;;;;;;;;23.00;23.60;;;;;;5126349;28;19930;-51
2022/01/11 12:26:13;;;;;;;;;;;23.00;23.60;;;;;;5119330;28;19938;-53
2022/01/11 12:28:39;;;;;;;;;;;23.10;23.40;;;;;;5120732;28;19927;-53
2022/01/11 12:31:25;;;;;;;;;;;23.10;23.20;;;;;;5107291;28;19931;-46
2022/01/11 12:33:50;;;;;;;;;;;23.10;23.00;;;;;;5120702;28;20021;-50
2022/01/11 12:36:16;;;;;;;;;;;23.20;22.80;;;;;;5120570;28;20295;-57
2022/01/11 12:39:02;;;;;;;;;;;23.20;22.60;;;;;;5105846;28;19949;-50
2022/01/11 12:41:29;;;;;;;;;;;23.20;22.50;;;;;;5120152;28;19930;-55
2022/01/11 12:44:14;;;;;;;;;;;23.20;22.40;;;;;;5121289;28;20192;-58
2022/01/11 12:46:49;;;;;;;;;;;23.00;22.50;;;;;;5125520;28;19937;-53
2022/01/11 12:49:15;;;;;;;;;;;23.00;22.50;;;;;;5120873;28;19924;-52
2022/01/11 12:51:55;;;;;;;;;;;22.90;22.40;;;;;;5120851;28;20297;-58
2022/01/11 12:54:32;;;;;;;;;;;22.90;22.40;;;;;;5124964;28;22247;-51
2022/01/11 12:57:18;;;;;;;;;;;22.90;22.40;;;;;;5120551;28;20295;-53
2022/01/11 12:59:48;;;;;;;;;;;22.90;22.20;;;;;;5120121;28;19923;-52
2022/01/11 13:02:18;;;;;;;;;;;22.80;22.20;;;;;;5107137;28;20014;-54
2022/01/11 13:04:45;;;;;;;;;;;23.00;22.10;;;;;;5119359;28;19941;-54
2022/01/11 13:07:13;;;;;;;;;;;23.00;22.00;;;;;;5120577;28;19933;-57
2022/01/11 13:09:39;;;;;;;;;;;23.00;21.90;;;;;;5125661;28;20344;-50
2022/01/11 13:12:05;;;;;;;;;;;23.00;21.90;;;;;;5119748;28;19935;-53
2022/01/11 13:14:38;;;;;;;;;;;23.00;21.90;;;;;;5125763;28;20374;-50
2022/01/11 13:17:04;;;;;;;;;;;23.10;21.70;;;;;;5117989;27;20309;-50
2022/01/11 13:19:33;;;;;;;;;;;23.00;21.60;;;;;;5124033;28;19927;-51
2022/01/11 13:22:05;;;;;;;;;;;23.20;21.50;;;;;;5127065;28;19930;-53
2022/01/11 13:24:35;;;;;;;;;;;23.10;21.50;;;;;;5123922;28;19927;-53
2022/01/11 13:27:14;;;;;;;;;;;23.00;21.50;;;;;;5123926;28;19924;-53
2022/01/11 13:29:42;;;;;;;;;;;23.10;21.40;;;;;;5129104;28;19924;-48
2022/01/11 13:32:09;;;;;;;;;;;23.10;21.40;;;;;;5123361;28;20339;-51
2022/01/11 13:34:35;;;;;;;;;;;23.20;21.20;;;;;;5105220;28;20166;-50
2022/01/11 13:37:01;;;;;;;;;;;23.30;21.20;;;;;;5129263;28;19923;-46
2022/01/11 13:39:29;;;;;;;;;;;23.20;21.20;;;;;;5122312;28;19923;-51
2022/01/11 13:41:56;;;;;;;;;;;23.20;21.20;;;;;;5125660;28;19937;-58
2022/01/11 13:44:22;;;;;;;;;;;23.10;21.40;;;;;;5126597;28;19931;-51
2022/01/11 13:46:52;;;;;;;;;;;23.00;21.60;;;;;;5123396;28;19924;-50
2022/01/11 13:49:28;;;;;;;;;;;22.90;21.70;;;;;;5128666;28;19923;-50
2022/01/11 13:51:58;;;;;;;;;;;23.00;21.40;;;;;;5123480;28;19924;-49
2022/01/11 13:54:32;;;;;;;;;;;23.00;21.50;;;;;;5123234;28;20079;-51
2022/01/11 13:57:01;;;;;;;;;;;23.10;21.40;;;;;;5128459;28;19931;-53
2022/01/11 13:59:27;;;;;;;;;;;23.10;21.30;;;;;;5121286;28;20434;-51
2022/01/11 14:02:03;;;;;;;;;;;23.10;21.30;;;;;;5123138;28;20099;-50
2022/01/11 14:04:30;;;;;;;;;;;23.00;21.30;;;;;;5128507;28;19930;-48
2022/01/11 14:06:56;;;;;;;;;;;23.10;21.30;;;;;;5103124;28;20001;-48
2022/01/11 14:09:34;;;;;;;;;;;23.10;21.20;;;;;;5122788;28;20267;-52
2022/01/11 14:12:13;;;;;;;;;;;23.00;21.20;;;;;;5128579;28;19934;-52
2022/01/11 14:14:41;;;;;;;;;;;23.10;21.10;;;;;;5123157;28;20388;-50
2022/01/11 14:17:14;;;;;;;;;;;23.00;21.20;;;;;;5121050;28;20325;-50